createdAt,value
2019-04-06T00:02:23.966Z,7.81
2019-04-06T00:04:53.574Z,7.83
2019-04-06T00:07:23.186Z,7.83
2019-04-06T00:09:53.593Z,7.83
2019-04-06T00:15:12.320Z,7.78
2019-04-06T00:17:41.870Z,7.75
2019-04-06T00:20:12.400Z,7.76
2019-04-06T00:22:42.297Z,7.71
2019-04-06T00:25:12.207Z,7.71
2019-04-06T00:27:44.623Z,7.69
2019-04-06T00:30:14.434Z,7.73
2019-04-06T00:32:51.398Z,7.75
2019-04-06T00:35:21.979Z,7.74
2019-04-06T00:37:51.505Z,7.72
2019-04-06T00:40:24.800Z,7.70
2019-04-06T00:42:54.483Z,7.64
2019-04-06T00:45:25.050Z,7.60
2019-04-06T00:47:54.811Z,7.57
2019-04-06T00:50:25.477Z,7.54
2019-04-06T00:52:55.038Z,7.55
2019-04-06T00:55:26.468Z,7.56
2019-04-06T00:57:56.816Z,7.58
2019-04-06T01:00:33.442Z,7.53
2019-04-06T01:03:03.692Z,7.51
2019-04-06T01:05:35.154Z,7.53
2019-04-06T01:08:05.542Z,7.53
2019-04-06T01:10:36.224Z,7.56
2019-04-06T01:13:06.766Z,7.57
2019-04-06T01:15:39.028Z,7.56
2019-04-06T01:18:08.713Z,7.55
2019-04-06T01:20:38.775Z,7.49
2019-04-06T01:23:08.772Z,7.50
2019-04-06T01:25:39.062Z,7.52
2019-04-06T01:28:09.972Z,7.55
2019-04-06T01:30:40.346Z,7.58
2019-04-06T01:33:11.113Z,7.58
2019-04-06T01:35:41.549Z,7.58
2019-04-06T01:38:11.471Z,7.57
2019-04-06T01:40:41.932Z,7.58
2019-04-06T01:43:11.471Z,7.58
2019-04-06T01:45:41.365Z,7.56
2019-04-06T01:48:11.560Z,7.57
2019-04-06T01:50:41.669Z,7.55
2019-04-06T01:53:13.084Z,7.56
2019-04-06T01:55:47.630Z,7.56
2019-04-06T01:58:17.170Z,7.56
2019-04-06T02:01:05.433Z,7.52
2019-04-06T02:03:35.286Z,7.54
2019-04-06T02:06:05.878Z,7.55
2019-04-06T02:08:37.538Z,7.54
2019-04-06T02:11:07.599Z,7.55
2019-04-06T02:13:37.160Z,7.56
2019-04-06T02:16:07.911Z,7.58
2019-04-06T02:18:37.719Z,7.59
2019-04-06T02:21:07.190Z,7.57
2019-04-06T02:23:39.324Z,7.56
2019-04-06T02:26:08.889Z,7.57
2019-04-06T02:28:41.762Z,7.54
2019-04-06T02:31:34.999Z,7.59
2019-04-06T02:34:17.190Z,7.64
2019-04-06T02:37:07.887Z,7.63
2019-04-06T02:39:47.840Z,7.61
2019-04-06T02:42:20.667Z,7.62
2019-04-06T02:44:50.717Z,7.58
2019-04-06T02:47:21.887Z,7.59
2019-04-06T02:49:51.353Z,7.57
2019-04-06T02:52:22.623Z,7.55
2019-04-06T02:54:52.794Z,7.56
2019-04-06T02:57:23.558Z,7.54
2019-04-06T02:59:54.469Z,7.49
2019-04-06T03:02:24.361Z,7.45
2019-04-06T03:04:53.837Z,7.45
2019-04-06T03:07:23.714Z,7.50
2019-04-06T03:09:54.284Z,7.55
2019-04-06T03:12:24.206Z,7.61
2019-04-06T03:14:53.645Z,7.66
2019-04-06T03:17:23.988Z,7.70
2019-04-06T03:19:54.790Z,7.75
2019-04-06T03:22:24.342Z,7.81
2019-04-06T03:24:54.963Z,7.83
2019-04-06T03:27:30.468Z,7.83
2019-04-06T03:30:00.470Z,7.83
2019-04-06T03:32:30.581Z,7.83
2019-04-06T03:35:01.377Z,7.85
2019-04-06T03:37:31.297Z,7.86
2019-04-06T03:40:00.845Z,7.88
2019-04-06T03:42:30.313Z,7.90
2019-04-06T03:44:59.663Z,7.86
2019-04-06T03:47:29.372Z,7.92
2019-04-06T03:50:00.292Z,7.95
2019-04-06T03:52:29.852Z,7.98
2019-04-06T03:55:00.324Z,7.98
2019-04-06T03:57:33.057Z,7.98
2019-04-06T04:00:02.454Z,7.94
2019-04-06T04:02:32.432Z,7.94
2019-04-06T04:05:01.906Z,7.98
2019-04-06T04:07:31.792Z,8.01
2019-04-06T04:10:01.400Z,8.03
2019-04-06T04:12:33.708Z,7.97
2019-04-06T04:15:04.211Z,7.97
2019-04-06T04:17:34.830Z,7.95
2019-04-06T04:20:04.900Z,8.01
2019-04-06T04:22:35.544Z,8.03
2019-04-06T04:25:06.290Z,7.99
2019-04-06T04:27:40.884Z,8.01
2019-04-06T04:30:10.521Z,8.03
2019-04-06T04:32:40.741Z,8.06
2019-04-06T04:35:11.762Z,8.11
2019-04-06T04:37:43.215Z,8.12
2019-04-06T04:40:12.756Z,8.14
2019-04-06T04:42:45.264Z,8.14
2019-04-06T04:45:14.950Z,8.16
2019-04-06T04:47:49.934Z,8.10
2019-04-06T04:50:20.308Z,8.11
2019-04-06T04:52:50.919Z,8.09
2019-04-06T04:55:20.959Z,8.05
2019-04-06T04:57:50.968Z,8.12
2019-04-06T05:00:20.479Z,8.14
2019-04-06T05:02:50.418Z,8.10
2019-04-06T05:05:21.270Z,8.07
2019-04-06T05:07:51.148Z,8.02
2019-04-06T05:10:20.731Z,7.95
2019-04-06T05:12:51.351Z,7.91
2019-04-06T05:15:31.223Z,7.92
2019-04-06T05:18:02.296Z,7.94
2019-04-06T05:20:33.042Z,8.06
2019-04-06T05:23:04.334Z,8.18
2019-04-06T05:25:34.219Z,8.25
2019-04-06T05:28:04.278Z,8.30
2019-04-06T05:30:33.693Z,8.30
2019-04-06T05:33:03.959Z,8.27
2019-04-06T05:35:34.178Z,8.15
2019-04-06T05:38:04.052Z,8.17
2019-04-06T05:40:34.019Z,8.15
2019-04-06T05:43:04.588Z,8.12
2019-04-06T05:45:36.038Z,8.28
2019-04-06T05:48:07.364Z,8.44
2019-04-06T05:50:45.854Z,8.53
2019-04-06T05:53:18.608Z,8.65
2019-04-06T05:55:53.855Z,8.76
2019-04-06T05:58:26.510Z,8.90
2019-04-06T06:00:56.972Z,8.97
2019-04-06T06:03:27.040Z,9.03
2019-04-06T06:06:03.880Z,9.07
2019-04-06T06:08:34.869Z,9.11
2019-04-06T06:11:06.764Z,9.06
2019-04-06T06:13:39.648Z,8.89
2019-04-06T06:16:12.043Z,8.90
2019-04-06T06:18:43.494Z,9.03
2019-04-06T06:21:13.419Z,9.14
2019-04-06T06:23:44.310Z,9.30
2019-04-06T06:26:15.922Z,9.45
2019-04-06T06:28:47.716Z,9.58
2019-04-06T06:31:20.783Z,9.66
2019-04-06T06:33:54.296Z,9.78
2019-04-06T06:36:27.352Z,9.92
2019-04-06T06:38:59.077Z,10.09
2019-04-06T06:41:28.862Z,10.21
2019-04-06T06:43:58.886Z,10.37
2019-04-06T06:46:28.994Z,10.48
2019-04-06T06:48:59.661Z,10.66
2019-04-06T06:51:29.312Z,10.90
2019-04-06T06:53:58.908Z,11.04
2019-04-06T06:56:28.683Z,11.19
2019-04-06T06:58:58.346Z,11.30
2019-04-06T07:01:30.305Z,11.41
2019-04-06T07:04:02.607Z,11.57
2019-04-06T07:06:34.382Z,11.77
2019-04-06T07:09:05.750Z,11.98
2019-04-06T07:11:37.916Z,11.70
2019-04-06T07:14:09.424Z,11.97
2019-04-06T07:16:40.475Z,12.09
2019-04-06T07:19:11.813Z,12.35
2019-04-06T07:21:43.171Z,12.51
2019-04-06T07:24:14.992Z,12.55
2019-04-06T07:26:53.162Z,12.89
2019-04-06T07:29:47.707Z,13.03
2019-04-06T07:32:28.718Z,13.17
2019-04-06T07:35:13.011Z,12.71
2019-04-06T07:38:37.886Z,12.54
2019-04-06T07:41:09.057Z,12.48
2019-04-06T07:44:02.015Z,12.43
2019-04-06T07:46:52.716Z,12.40
2019-04-06T07:53:59.617Z,12.21
2019-04-06T07:59:55.357Z,12.30
2019-04-06T09:56:17.382Z,16.15
2019-04-06T09:59:49.078Z,16.23
2019-04-06T10:03:28.014Z,16.04
2019-04-06T10:06:45.510Z,15.92
2019-04-06T10:37:42.863Z,16.06
2019-04-06T10:40:39.403Z,16.25
2019-04-06T10:43:37.285Z,16.43
2019-04-06T10:46:34.957Z,16.59
2019-04-06T10:49:24.685Z,16.50
2019-04-06T11:10:16.703Z,17.33
2019-04-06T11:13:09.642Z,17.49
2019-04-06T11:16:04.797Z,17.31
2019-04-06T11:18:53.326Z,17.37
2019-04-06T11:21:51.609Z,18.08
2019-04-06T11:24:41.505Z,18.55
2019-04-06T11:27:31.455Z,19.52
2019-04-06T11:30:13.724Z,19.81
2019-04-06T11:32:56.465Z,19.70
2019-04-06T11:35:57.249Z,19.17
2019-04-06T11:38:54.925Z,19.33
2019-04-06T11:41:49.335Z,19.21
2019-04-06T11:44:41.070Z,18.95
2019-04-06T11:47:28.289Z,18.56
2019-04-06T11:50:45.569Z,18.13
2019-04-06T11:53:39.901Z,18.83
2019-04-06T11:56:38.280Z,19.71
2019-04-06T11:59:15.420Z,20.41
2019-04-06T12:02:18.958Z,20.99
2019-04-06T12:04:59.200Z,21.26
2019-04-06T12:07:41.163Z,20.62
2019-04-06T12:10:28.625Z,21.53
2019-04-06T12:13:19.938Z,22.17
2019-04-06T12:16:11.428Z,22.60
2019-04-06T12:18:56.171Z,22.56
2019-04-06T12:21:36.817Z,22.39
2019-04-06T12:24:40.438Z,22.59
2019-04-06T12:27:28.863Z,22.80
2019-04-06T12:30:24.558Z,22.41
2019-04-06T12:33:13.012Z,21.85
2019-04-06T12:36:16.730Z,21.84
2019-04-06T12:39:13.159Z,22.20
2019-04-06T12:42:01.755Z,22.60
2019-04-06T12:44:54.619Z,22.56
2019-04-06T12:47:59.135Z,22.19
2019-04-06T12:50:47.158Z,22.19
2019-04-06T12:53:36.421Z,22.17
2019-04-06T12:56:16.333Z,22.02
2019-04-06T12:58:58.190Z,22.21
2019-04-06T13:01:37.148Z,22.26
2019-04-06T13:04:24.674Z,22.45
2019-04-06T13:07:13.006Z,22.41
2019-04-06T13:10:08.741Z,22.73
2019-04-06T13:12:58.483Z,22.68
2019-04-06T13:15:46.881Z,22.47
2019-04-06T13:18:34.771Z,23.20
2019-04-06T13:21:31.134Z,24.19
2019-04-06T13:24:19.491Z,23.63
2019-04-06T13:27:08.678Z,23.39
2019-04-06T13:29:57.125Z,23.95
2019-04-06T13:32:36.567Z,25.20
2019-04-06T13:35:25.282Z,26.90
2019-04-06T13:38:02.534Z,26.57
2019-04-06T13:47:16.233Z,30.08
2019-04-06T13:50:02.229Z,30.21
2019-04-06T13:52:51.484Z,30.23
2019-04-06T13:59:22.996Z,30.67
2019-04-06T14:02:14.279Z,29.21
2019-04-06T14:04:59.651Z,29.78
2019-04-06T14:07:47.813Z,31.26
2019-04-06T14:10:27.800Z,32.22
2019-04-06T14:13:23.566Z,32.20
2019-04-06T14:16:17.801Z,32.31
2019-04-06T14:19:24.466Z,30.15
2019-04-06T14:22:15.421Z,30.53
2019-04-06T14:25:03.832Z,31.24
2019-04-06T14:27:48.415Z,32.40
2019-04-06T14:30:36.909Z,33.53
2019-04-06T14:40:51.293Z,34.91
2019-04-06T14:43:45.838Z,34.97
2019-04-06T14:46:34.144Z,35.11
2019-04-06T14:49:30.208Z,33.41
2019-04-06T14:52:14.109Z,33.84
2019-04-06T14:55:00.052Z,33.58
2019-04-06T14:57:39.649Z,32.29
2019-04-06T15:00:40.930Z,31.71
2019-04-06T15:03:47.913Z,32.07
2019-04-06T15:12:45.655Z,32.94
2019-04-06T15:16:12.218Z,33.53
2019-04-06T15:19:06.582Z,34.07
2019-04-06T15:22:14.761Z,34.22
2019-04-06T15:25:04.154Z,35.40
2019-04-06T15:27:50.140Z,35.88
2019-04-06T15:30:39.655Z,36.47
2019-04-06T15:33:44.083Z,36.80
2019-04-06T15:36:35.512Z,34.82
2019-04-06T15:39:25.344Z,33.45
2019-04-06T15:42:15.168Z,33.20
2019-04-06T15:48:37.409Z,32.77
2019-04-06T15:51:25.629Z,30.51
2019-04-06T16:22:06.939Z,21.87
2019-04-06T16:25:03.495Z,21.57
2019-04-06T16:27:56.006Z,20.91
2019-04-06T16:33:15.091Z,20.77
2019-04-06T16:36:19.886Z,20.42
2019-04-06T16:39:08.202Z,20.35
2019-04-06T16:42:10.812Z,20.97
2019-04-06T16:45:03.876Z,21.32
2019-04-06T16:47:47.901Z,20.89
2019-04-06T16:50:42.312Z,20.81
2019-04-06T16:53:31.833Z,20.57
2019-04-06T16:56:10.748Z,20.41
2019-04-06T16:58:59.984Z,20.48
2019-04-06T17:01:49.565Z,20.40
2019-04-06T17:04:38.504Z,19.92
2019-04-06T17:07:26.321Z,19.42
2019-04-06T17:10:18.467Z,19.08
2019-04-06T17:13:18.996Z,18.83
2019-04-06T17:15:57.801Z,18.49
2019-04-06T17:18:53.367Z,18.12
2019-04-06T17:21:44.883Z,17.80
2019-04-06T17:24:30.787Z,17.41
2019-04-06T17:27:42.050Z,17.04
2019-04-06T17:31:16.273Z,16.66
2019-04-06T17:34:12.406Z,16.27
2019-04-06T17:36:51.649Z,15.90
2019-04-06T17:39:45.133Z,15.59
2019-04-06T17:42:34.103Z,15.20
2019-04-06T17:45:42.601Z,14.78
2019-04-06T17:48:33.960Z,14.41
2019-04-06T17:51:34.695Z,14.05
2019-04-06T17:54:29.889Z,13.81
2019-04-06T17:57:30.079Z,13.58
2019-04-06T18:00:28.151Z,13.37
2019-04-06T18:03:23.621Z,13.14
2019-04-06T18:06:22.237Z,12.88
2019-04-06T18:09:09.850Z,12.67
2019-04-06T18:12:06.163Z,12.54
2019-04-06T18:14:41.299Z,12.44
2019-04-06T18:17:12.937Z,12.28
2019-04-06T18:19:48.293Z,12.16
2019-04-06T18:22:19.333Z,12.10
2019-04-06T18:24:54.073Z,11.97
2019-04-06T18:27:28.503Z,12.02
2019-04-06T18:30:09.337Z,12.02
2019-04-06T18:33:00.717Z,11.97
2019-04-06T18:35:28.232Z,11.89
2019-04-06T18:38:32.267Z,11.84
2019-04-06T18:41:02.374Z,11.89
2019-04-06T18:43:32.477Z,12.14
2019-04-06T18:46:02.524Z,12.23
2019-04-06T18:48:32.883Z,12.23
2019-04-06T18:51:03.404Z,12.30
2019-04-06T18:53:33.502Z,12.21
2019-04-06T18:56:04.097Z,12.18
2019-04-06T18:58:34.297Z,12.11
2019-04-06T19:01:04.525Z,11.93
2019-04-06T19:03:35.639Z,11.80
2019-04-06T19:06:06.428Z,11.60
2019-04-06T19:08:36.562Z,11.35
2019-04-06T19:11:06.976Z,11.13
2019-04-06T19:13:40.079Z,10.90
2019-04-06T19:16:10.370Z,10.65
2019-04-06T19:18:40.366Z,10.46
2019-04-06T19:21:10.476Z,10.30
2019-04-06T19:23:41.404Z,10.16
2019-04-06T19:26:11.418Z,10.02
2019-04-06T19:28:41.342Z,9.90
2019-04-06T19:31:12.512Z,9.80
2019-04-06T19:33:43.132Z,9.71
2019-04-06T19:36:13.364Z,9.62
2019-04-06T19:38:43.843Z,9.54
2019-04-06T19:41:21.818Z,9.48
2019-04-06T19:43:54.408Z,9.41
2019-04-06T19:46:24.743Z,9.39
2019-04-06T19:48:54.890Z,9.35
2019-04-06T19:51:25.072Z,9.29
2019-04-06T19:53:55.166Z,9.24
2019-04-06T19:56:25.191Z,9.22
2019-04-06T19:58:57.461Z,9.25
2019-04-06T20:01:28.847Z,9.29
2019-04-06T20:04:00.136Z,9.29
2019-04-06T20:06:30.719Z,9.28
2019-04-06T20:09:03.038Z,9.25
2019-04-06T20:11:35.005Z,9.20
2019-04-06T20:14:06.174Z,9.15
2019-04-06T20:16:37.266Z,9.09
2019-04-06T20:19:07.881Z,9.06
2019-04-06T20:21:43.243Z,9.06
2019-04-06T20:24:17.159Z,9.03
2019-04-06T20:26:48.350Z,8.97
2019-04-06T20:29:22.120Z,8.92
2019-04-06T20:31:52.240Z,8.86
2019-04-06T20:34:24.244Z,8.82
2019-04-06T20:37:00.289Z,8.81
2019-04-06T20:39:33.422Z,8.75
2019-04-06T20:42:03.098Z,8.66
2019-04-06T20:44:37.054Z,8.60
2019-04-06T20:47:16.808Z,8.55
2019-04-06T20:50:21.633Z,8.52
2019-04-06T20:53:28.956Z,8.52
2019-04-06T20:56:11.883Z,8.49
2019-04-06T20:58:52.195Z,8.45
2019-04-06T21:01:26.550Z,8.46
2019-04-06T21:04:04.290Z,8.46
2019-04-06T21:06:41.580Z,8.48
2019-04-06T21:09:14.360Z,8.52
2019-04-06T21:12:22.681Z,8.57
2019-04-06T21:15:17.659Z,8.58
2019-04-06T21:17:43.670Z,8.54
2019-04-06T21:27:15.074Z,8.33
2019-04-06T21:29:50.756Z,8.32
2019-04-06T21:32:52.596Z,8.30
2019-04-06T21:35:36.863Z,8.26
2019-04-06T21:38:36.757Z,8.18
2019-04-06T21:41:39.621Z,8.09
2019-04-06T21:44:49.574Z,8.01
2019-04-06T21:48:07.007Z,7.92
2019-04-06T21:51:16.920Z,7.82
2019-04-06T21:58:38.105Z,7.71
2019-04-06T22:02:28.618Z,7.67
2019-04-06T22:12:45.951Z,7.68
2019-04-06T22:23:20.958Z,7.86
2019-04-06T22:26:40.972Z,7.90
2019-04-06T22:32:44.973Z,7.86
2019-04-06T22:35:24.778Z,7.84
2019-04-06T22:38:01.130Z,7.89
2019-04-06T22:40:39.756Z,7.96
2019-04-06T22:43:20.602Z,8.00
2019-04-06T22:45:59.021Z,8.04
2019-04-06T22:55:51.535Z,8.22
2019-04-06T22:58:27.976Z,8.24
2019-04-06T23:01:08.659Z,8.27
2019-04-06T23:04:07.840Z,8.36
2019-04-06T23:06:50.169Z,8.52
2019-04-06T23:09:22.495Z,8.67
2019-04-06T23:11:55.886Z,8.79
2019-04-06T23:14:33.899Z,8.84
2019-04-06T23:17:07.576Z,8.83
2019-04-06T23:19:37.637Z,8.81
2019-04-06T23:22:10.355Z,8.77
2019-04-06T23:24:41.995Z,8.73
2019-04-06T23:27:12.105Z,8.70
2019-04-06T23:29:43.987Z,8.69
2019-04-06T23:32:14.802Z,8.66
2019-04-06T23:34:58.321Z,8.65
2019-04-06T23:37:20.448Z,8.62
2019-04-06T23:39:51.962Z,8.57
2019-04-06T23:42:22.755Z,8.49
2019-04-06T23:44:54.391Z,8.44
2019-04-06T23:47:25.888Z,8.35
2019-04-06T23:49:57.492Z,8.24
2019-04-06T23:52:28.080Z,8.18
2019-04-06T23:54:57.970Z,8.17
2019-04-06T23:57:30.282Z,8.16
